N9167C KMYR-KMYR
Flight info
| Callsign | N9167C |
|---|---|
| Flight time | 0h 4m |
| Altitude | VFR |
| Route | |
| Aircraft | C172/L-DOV/C |
Departure
| Time | 2026-04-27 01:01 |
|---|---|
| Airport | Myrtle Beach International Airport (KMYR) |
Arrival
| Time | 2026-04-27 01:05 |
|---|---|
| Airport | Myrtle Beach International Airport (KMYR) |
| Time | Latitude | Longitude | Altitude | Speed | Heading |
|---|---|---|---|---|---|
| 2026-04-27 00:54 | 33.67007 | -78.93087 | 22 ft | 0 kts | 61° |
| 2026-04-27 00:55 | 33.67010 | -78.93078 | 22 ft | 2 kts | 72° |
| 2026-04-27 00:55 | 33.66995 | -78.93014 | 20 ft | 12 kts | 133° |
| 2026-04-27 00:55 | 33.66917 | -78.92950 | 20 ft | 14 kts | 150° |
| 2026-04-27 00:56 | 33.66824 | -78.92912 | 20 ft | 11 kts | 172° |
| 2026-04-27 00:56 | 33.66744 | -78.92892 | 20 ft | 12 kts | 165° |
| 2026-04-27 00:56 | 33.66672 | -78.92835 | 20 ft | 13 kts | 116° |
| 2026-04-27 00:56 | 33.66673 | -78.92716 | 17 ft | 14 kts | 76° |
| 2026-04-27 00:57 | 33.66689 | -78.92616 | 17 ft | 5 kts | 77° |
| 2026-04-27 00:57 | 33.66692 | -78.92608 | 17 ft | 0 kts | 65° |
| 2026-04-27 00:57 | 33.66692 | -78.92602 | 17 ft | 0 kts | 120° |
| 2026-04-27 01:00 | 33.66691 | -78.92602 | 17 ft | 0 kts | 107° |
| 2026-04-27 01:00 | 33.66700 | -78.92555 | 17 ft | 10 kts | 73° |
| 2026-04-27 01:00 | 33.66791 | -78.92532 | 17 ft | 27 kts | 348° |
| 2026-04-27 01:00 | 33.67133 | -78.92621 | 67 ft | 63 kts | 346° |
| 2026-04-27 01:01 | 33.67599 | -78.92774 | 227 ft | 71 kts | 346° |
| 2026-04-27 01:01 | 33.68056 | -78.92916 | 459 ft | 67 kts | 349° |
| 2026-04-27 01:01 | 33.68496 | -78.93047 | 682 ft | 64 kts | 352° |
| 2026-04-27 01:01 | 33.68930 | -78.93172 | 879 ft | 65 kts | 353° |
| 2026-04-27 01:02 | 33.69378 | -78.93351 | 1077 ft | 69 kts | 348° |
| 2026-04-27 01:02 | 33.69780 | -78.93676 | 1311 ft | 80 kts | 312° |
| 2026-04-27 01:02 | 33.69857 | -78.94441 | 1468 ft | 102 kts | 269° |
| 2026-04-27 01:02 | 33.69668 | -78.95308 | 1498 ft | 106 kts | 259° |
| 2026-04-27 01:03 | 33.69200 | -78.95988 | 1499 ft | 109 kts | 194° |
| 2026-04-27 01:03 | 33.68481 | -78.95971 | 1461 ft | 100 kts | 149° |
| 2026-04-27 01:03 | 33.67815 | -78.95726 | 1443 ft | 99 kts | 144° |
| 2026-04-27 01:03 | 33.67175 | -78.95428 | 1384 ft | 96 kts | 141° |
| 2026-04-27 01:04 | 33.66573 | -78.95083 | 1299 ft | 95 kts | 137° |
| 2026-04-27 01:04 | 33.66010 | -78.94693 | 1238 ft | 90 kts | 131° |
| 2026-04-27 01:04 | 33.65511 | -78.94232 | 1128 ft | 90 kts | 125° |
| 2026-04-27 01:04 | 33.65190 | -78.93660 | 978 ft | 71 kts | 78° |
| 2026-04-27 01:05 | 33.65386 | -78.93246 | 862 ft | 55 kts | 49° |
| 2026-04-27 01:05 | 33.65632 | -78.92887 | 713 ft | 55 kts | 47° |
| 2026-04-27 01:05 | 33.65903 | -78.92596 | 587 ft | 49 kts | 30° |
| 2026-04-27 01:05 | 33.66230 | -78.92496 | 410 ft | 50 kts | 14° |
| 2026-04-27 01:06 | 33.66576 | -78.92493 | 216 ft | 52 kts | 358° |
| 2026-04-27 01:06 | 33.66936 | -78.92577 | 51 ft | 51 kts | 354° |
| 2026-04-27 01:06 | 33.67244 | -78.92652 | 20 ft | 52 kts | 349° |
| 2026-04-27 01:06 | 33.67693 | -78.92799 | 125 ft | 71 kts | 341° |
| 2026-04-27 01:07 | 33.68148 | -78.92957 | 356 ft | 66 kts | 350° |
| 2026-04-27 01:07 | 33.68592 | -78.93133 | 582 ft | 65 kts | 345° |
| 2026-04-27 01:07 | 33.69012 | -78.93334 | 775 ft | 66 kts | 351° |
| 2026-04-27 01:07 | 33.69459 | -78.93479 | 981 ft | 66 kts | 351° |
| 2026-04-27 01:08 | 33.69806 | -78.93912 | 1152 ft | 92 kts | 286° |
| 2026-04-27 01:08 | 33.69735 | -78.94736 | 1295 ft | 103 kts | 266° |
| 2026-04-27 01:08 | 33.69543 | -78.95586 | 1511 ft | 106 kts | 253° |
| 2026-04-27 01:08 | 33.68993 | -78.96184 | 1575 ft | 108 kts | 189° |
| 2026-04-27 01:09 | 33.68286 | -78.96193 | 1519 ft | 98 kts | 152° |
| 2026-04-27 01:09 | 33.67631 | -78.96003 | 1475 ft | 95 kts | 149° |
| 2026-04-27 01:09 | 33.66999 | -78.95751 | 1380 ft | 96 kts | 143° |
| 2026-04-27 01:09 | 33.66401 | -78.95441 | 1272 ft | 92 kts | 141° |
| 2026-04-27 01:10 | 33.65812 | -78.95125 | 1149 ft | 91 kts | 138° |
| 2026-04-27 01:10 | 33.65300 | -78.94708 | 1008 ft | 79 kts | 111° |
| 2026-04-27 01:10 | 33.65238 | -78.94208 | 863 ft | 56 kts | 68° |
| 2026-04-27 01:10 | 33.65347 | -78.93753 | 715 ft | 58 kts | 60° |
| 2026-04-27 01:11 | 33.65510 | -78.93304 | 683 ft | 59 kts | 53° |
| 2026-04-27 01:11 | 33.65736 | -78.92937 | 752 ft | 56 kts | 46° |
| 2026-04-27 01:11 | 33.66030 | -78.92649 | 594 ft | 51 kts | 27° |
| 2026-04-27 01:11 | 33.66351 | -78.92502 | 409 ft | 48 kts | 8° |
| 2026-04-27 01:12 | 33.66713 | -78.92538 | 170 ft | 53 kts | 352° |
| 2026-04-27 01:12 | 33.67075 | -78.92615 | 23 ft | 48 kts | 351° |
| 2026-04-27 01:12 | 33.67325 | -78.92661 | 20 ft | 25 kts | 352° |
| 2026-04-27 01:12 | 33.67409 | -78.92687 | 20 ft | 5 kts | 345° |
| 2026-04-27 01:13 | 33.67433 | -78.92731 | 20 ft | 11 kts | 257° |
| 2026-04-27 01:13 | 33.67411 | -78.92841 | 20 ft | 11 kts | 256° |
| 2026-04-27 01:13 | 33.67399 | -78.92916 | 20 ft | 9 kts | 259° |
| 2026-04-27 01:13 | 33.67380 | -78.93018 | 20 ft | 18 kts | 258° |
| 2026-04-27 01:14 | 33.67360 | -78.93167 | 20 ft | 14 kts | 254° |
| 2026-04-27 01:14 | 33.67318 | -78.93193 | 21 ft | 2 kts | 77° |
| 2026-04-27 01:14 | 33.67302 | -78.93195 | 21 ft | 5 kts | 159° |
| 2026-04-27 01:14 | 33.67289 | -78.93191 | 21 ft | 0 kts | 257° |
| 2026-04-27 01:17 | 32.73318 | -117.17699 | 24 ft | 0 kts | 232° |